sensor_id;sensor_type;location;lat;lon;timestamp;pressure;altitude;pressure_sealevel;temperature;humidity
7614;BME280;3848;42.016;23.098;2023-04-27T00:00:28;96754.47;;;10.65;82.71
7614;BME280;3848;42.016;23.098;2023-04-27T00:02:54;96756.19;;;10.65;78.24
7614;BME280;3848;42.016;23.098;2023-04-27T00:05:22;96740.13;;;10.60;81.30
7614;BME280;3848;42.016;23.098;2023-04-27T00:07:48;96748.53;;;10.66;77.29
7614;BME280;3848;42.016;23.098;2023-04-27T00:10:17;96752.69;;;10.71;76.41
7614;BME280;3848;42.016;23.098;2023-04-27T00:12:43;96747.63;;;10.69;74.80
7614;BME280;3848;42.016;23.098;2023-04-27T00:15:10;96752.72;;;10.69;73.77
7614;BME280;3848;42.016;23.098;2023-04-27T00:17:37;96763.72;;;10.69;72.60
7614;BME280;3848;42.016;23.098;2023-04-27T00:20:05;96762.03;;;10.70;73.67
7614;BME280;3848;42.016;23.098;2023-04-27T00:22:36;96761.16;;;10.71;74.28
7614;BME280;3848;42.016;23.098;2023-04-27T00:25:03;96767.06;;;10.73;73.95
7614;BME280;3848;42.016;23.098;2023-04-27T00:27:31;96751.78;;;10.75;73.26
7614;BME280;3848;42.016;23.098;2023-04-27T00:29:58;96743.41;;;10.69;73.04
7614;BME280;3848;42.016;23.098;2023-04-27T00:32:25;96754.38;;;10.72;72.02
7614;BME280;3848;42.016;23.098;2023-04-27T00:34:52;96751.84;;;10.72;71.64
7614;BME280;3848;42.016;23.098;2023-04-27T00:37:18;96756.91;;;10.72;71.99
7614;BME280;3848;42.016;23.098;2023-04-27T00:39:45;96752.75;;;10.67;71.13
7614;BME280;3848;42.016;23.098;2023-04-27T00:42:12;96749.41;;;10.64;70.54
7614;BME280;3848;42.016;23.098;2023-04-27T00:44:43;96752.03;;;10.58;71.52
7614;BME280;3848;42.016;23.098;2023-04-27T00:47:10;96757.94;;;10.58;72.51
7614;BME280;3848;42.016;23.098;2023-04-27T00:49:37;96756.28;;;10.56;72.47
7614;BME280;3848;42.016;23.098;2023-04-27T00:52:04;96755.44;;;10.57;72.64
7614;BME280;3848;42.016;23.098;2023-04-27T00:54:32;96758.00;;;10.55;70.80
7614;BME280;3848;42.016;23.098;2023-04-27T00:56:59;96750.38;;;10.54;71.22
7614;BME280;3848;42.016;23.098;2023-04-27T00:59:26;96760.59;;;10.51;71.83
7614;BME280;3848;42.016;23.098;2023-04-27T01:01:56;96755.56;;;10.48;72.90
7614;BME280;3848;42.016;23.098;2023-04-27T01:04:22;96770.81;;;10.48;71.39
7614;BME280;3848;42.016;23.098;2023-04-27T01:06:50;96747.19;;;10.43;72.89
7614;BME280;3848;42.016;23.098;2023-04-27T01:09:16;96759.84;;;10.44;70.69
7614;BME280;3848;42.016;23.098;2023-04-27T01:11:44;96771.75;;;10.39;72.29
7614;BME280;3848;42.016;23.098;2023-04-27T01:14:11;96744.91;;;10.21;69.71
7614;BME280;3848;42.016;23.098;2023-04-27T01:16:38;96753.25;;;10.29;70.16
7614;BME280;3848;42.016;23.098;2023-04-27T01:19:06;96767.69;;;10.27;72.60
7614;BME280;3848;42.016;23.098;2023-04-27T01:21:34;96767.72;;;10.26;71.77
7614;BME280;3848;42.016;23.098;2023-04-27T01:24:03;96766.91;;;10.22;71.56
7614;BME280;3848;42.016;23.098;2023-04-27T01:26:30;96761.84;;;10.16;71.57
7614;BME280;3848;42.016;23.098;2023-04-27T01:28:56;96762.75;;;10.12;73.55
7614;BME280;3848;42.016;23.098;2023-04-27T01:31:23;96765.28;;;10.14;73.50
7614;BME280;3848;42.016;23.098;2023-04-27T01:33:50;96773.84;;;10.06;72.38
7614;BME280;3848;42.016;23.098;2023-04-27T01:36:17;96763.75;;;10.02;73.22
7614;BME280;3848;42.016;23.098;2023-04-27T01:38:44;96763.75;;;10.00;71.76
7614;BME280;3848;42.016;23.098;2023-04-27T01:41:12;96747.81;;;9.88;74.69
7614;BME280;3848;42.016;23.098;2023-04-27T01:43:39;96762.97;;;9.94;72.97
7614;BME280;3848;42.016;23.098;2023-04-27T01:46:07;96752.06;;;9.87;72.91
7614;BME280;3848;42.016;23.098;2023-04-27T01:48:34;96755.47;;;9.86;74.32
7614;BME280;3848;42.016;23.098;2023-04-27T01:51:01;96754.66;;;9.83;75.54
7614;BME280;3848;42.016;23.098;2023-04-27T01:53:28;96758.06;;;9.78;74.34
7614;BME280;3848;42.016;23.098;2023-04-27T01:55:55;96779.22;;;9.77;74.78
7614;BME280;3848;42.016;23.098;2023-04-27T01:58:25;96771.69;;;9.71;74.52
7614;BME280;3848;42.016;23.098;2023-04-27T02:00:52;96761.56;;;9.68;76.22
7614;BME280;3848;42.016;23.098;2023-04-27T02:03:19;96715.41;;;9.37;78.02
7614;BME280;3848;42.016;23.098;2023-04-27T02:05:46;96775.91;;;9.72;78.89
7614;BME280;3848;42.016;23.098;2023-04-27T02:08:13;96753.22;;;9.57;76.48
7614;BME280;3848;42.016;23.098;2023-04-27T02:10:40;96780.19;;;9.67;78.59
7614;BME280;3848;42.016;23.098;2023-04-27T02:13:07;96780.22;;;9.64;78.55
7614;BME280;3848;42.016;23.098;2023-04-27T02:15:35;96771.78;;;9.62;78.84
7614;BME280;3848;42.016;23.098;2023-04-27T02:18:02;96767.63;;;9.58;83.07
7614;BME280;3848;42.016;23.098;2023-04-27T02:20:29;96779.47;;;9.53;81.78
7614;BME280;3848;42.016;23.098;2023-04-27T02:22:56;96784.63;;;9.45;82.02
7614;BME280;3848;42.016;23.098;2023-04-27T02:25:23;96782.91;;;9.47;83.75
7614;BME280;3848;42.016;23.098;2023-04-27T02:27:50;96785.50;;;9.43;85.32
7614;BME280;3848;42.016;23.098;2023-04-27T02:30:17;96777.09;;;9.39;86.19
7614;BME280;3848;42.016;23.098;2023-04-27T02:32:45;96777.16;;;9.30;86.57
7614;BME280;3848;42.016;23.098;2023-04-27T02:35:12;96772.16;;;9.23;86.94
7614;BME280;3848;42.016;23.098;2023-04-27T02:37:39;96790.69;;;9.28;87.41
7614;BME280;3848;42.016;23.098;2023-04-27T02:40:07;96791.53;;;9.28;90.16
7614;BME280;3848;42.016;23.098;2023-04-27T02:42:34;96790.72;;;9.25;88.88
7614;BME280;3848;42.016;23.098;2023-04-27T02:45:04;96785.72;;;9.19;89.83
7614;BME280;3848;42.016;23.098;2023-04-27T02:47:31;96789.94;;;9.20;87.70
7614;BME280;3848;42.016;23.098;2023-04-27T02:49:59;96791.66;;;9.18;88.67
7614;BME280;3848;42.016;23.098;2023-04-27T02:52:26;96796.69;;;9.16;89.11
7614;BME280;3848;42.016;23.098;2023-04-27T02:54:53;96798.41;;;9.14;89.46
7614;BME280;3848;42.016;23.098;2023-04-27T02:57:19;96794.25;;;9.07;88.31
7614;BME280;3848;42.016;23.098;2023-04-27T02:59:46;96812.75;;;9.15;88.88
7614;BME280;3848;42.016;23.098;2023-04-27T03:02:13;96802.66;;;9.12;89.57
7614;BME280;3848;42.016;23.098;2023-04-27T03:04:40;96811.97;;;9.10;91.00
7614;BME280;3848;42.016;23.098;2023-04-27T03:07:09;96813.66;;;9.08;91.82
7614;BME280;3848;42.016;23.098;2023-04-27T03:09:36;96790.97;;;8.97;91.60
7614;BME280;3848;42.016;23.098;2023-04-27T03:12:03;96797.63;;;9.06;91.42
7614;BME280;3848;42.016;23.098;2023-04-27T03:14:30;96812.03;;;9.01;92.52
7614;BME280;3848;42.016;23.098;2023-04-27T03:16:57;96818.81;;;8.97;89.36
7614;BME280;3848;42.016;23.098;2023-04-27T03:19:24;96791.06;;;8.80;90.31
7614;BME280;3848;42.016;23.098;2023-04-27T03:21:50;96814.69;;;8.84;92.30
7614;BME280;3848;42.016;23.098;2023-04-27T03:24:18;96802.88;;;8.80;88.81
7614;BME280;3848;42.016;23.098;2023-04-27T03:26:46;96807.13;;;8.79;91.09
7614;BME280;3848;42.016;23.098;2023-04-27T03:29:12;96810.50;;;8.77;88.82
7614;BME280;3848;42.016;23.098;2023-04-27T03:31:39;96813.03;;;8.80;90.30
7614;BME280;3848;42.016;23.098;2023-04-27T03:34:06;96822.31;;;8.79;87.63
7614;BME280;3848;42.016;23.098;2023-04-27T03:36:33;96809.66;;;8.78;88.30
7614;BME280;3848;42.016;23.098;2023-04-27T03:39:00;96812.19;;;8.78;89.08
7614;BME280;3848;42.016;23.098;2023-04-27T03:41:28;96817.25;;;8.78;87.99
7614;BME280;3848;42.016;23.098;2023-04-27T03:43:55;96831.63;;;8.77;90.68
7614;BME280;3848;42.016;23.098;2023-04-27T03:46:21;96835.81;;;8.80;89.53
7614;BME280;3848;42.016;23.098;2023-04-27T03:48:48;96834.97;;;8.81;89.37
7614;BME280;3848;42.016;23.098;2023-04-27T03:51:15;96828.25;;;8.77;89.48
7614;BME280;3848;42.016;23.098;2023-04-27T03:53:42;96837.53;;;8.79;89.07
7614;BME280;3848;42.016;23.098;2023-04-27T03:56:09;96845.13;;;8.78;89.57
7614;BME280;3848;42.016;23.098;2023-04-27T03:58:37;96847.66;;;8.79;88.09
7614;BME280;3848;42.016;23.098;2023-04-27T04:01:04;96854.44;;;8.76;87.97
7614;BME280;3848;42.016;23.098;2023-04-27T04:03:34;96851.91;;;8.76;88.69
7614;BME280;3848;42.016;23.098;2023-04-27T04:06:01;96867.06;;;8.74;92.32
7614;BME280;3848;42.016;23.098;2023-04-27T04:08:28;96874.69;;;8.74;86.57
7614;BME280;3848;42.016;23.098;2023-04-27T04:10:55;96863.75;;;8.68;89.76
7614;BME280;3848;42.016;23.098;2023-04-27T04:13:22;96875.56;;;8.67;89.14
7614;BME280;3848;42.016;23.098;2023-04-27T04:15:59;96882.31;;;8.70;92.35
7614;BME280;3848;42.016;23.098;2023-04-27T04:18:26;96891.59;;;8.71;92.69
7614;BME280;3848;42.016;23.098;2023-04-27T04:20:53;96886.53;;;8.68;91.21
7614;BME280;3848;42.016;23.098;2023-04-27T04:23:19;96893.25;;;8.73;93.06
7614;BME280;3848;42.016;23.098;2023-04-27T04:25:46;96902.56;;;8.71;93.37
7614;BME280;3848;42.016;23.098;2023-04-27T04:28:13;96909.31;;;8.72;93.65
7614;BME280;3848;42.016;23.098;2023-04-27T04:30:40;96909.28;;;8.74;91.69
7614;BME280;3848;42.016;23.098;2023-04-27T04:33:08;96908.47;;;8.72;94.61
7614;BME280;3848;42.016;23.098;2023-04-27T04:35:36;96911.84;;;8.75;95.12
7614;BME280;3848;42.016;23.098;2023-04-27T04:38:03;96903.41;;;8.75;96.54
7614;BME280;3848;42.016;23.098;2023-04-27T04:40:30;96910.97;;;8.81;93.34
7614;BME280;3848;42.016;23.098;2023-04-27T04:42:57;96882.31;;;8.65;91.80
7614;BME280;3848;42.016;23.098;2023-04-27T04:45:24;96907.59;;;8.82;95.37
7614;BME280;3848;42.016;23.098;2023-04-27T04:47:51;96925.25;;;8.91;91.38
7614;BME280;3848;42.016;23.098;2023-04-27T04:50:21;96932.84;;;8.97;94.54
7614;BME280;3848;42.016;23.098;2023-04-27T04:52:48;96912.59;;;8.91;92.43
7614;BME280;3848;42.016;23.098;2023-04-27T04:55:15;96929.44;;;9.04;88.37
7614;BME280;3848;42.016;23.098;2023-04-27T04:57:42;96939.56;;;9.03;90.54
7614;BME280;3848;42.016;23.098;2023-04-27T05:00:09;96926.09;;;8.99;88.67
7614;BME280;3848;42.016;23.098;2023-04-27T05:02:37;96937.91;;;9.02;87.00
7614;BME280;3848;42.016;23.098;2023-04-27T05:05:05;96939.53;;;9.09;88.73
7614;BME280;3848;42.016;23.098;2023-04-27T05:07:34;96941.22;;;9.10;86.92
7614;BME280;3848;42.016;23.098;2023-04-27T05:10:00;96934.44;;;9.13;89.07
7614;BME280;3848;42.016;23.098;2023-04-27T05:12:27;96947.94;;;9.19;88.71
7614;BME280;3848;42.016;23.098;2023-04-27T05:14:54;96953.03;;;9.19;86.49
7614;BME280;3848;42.016;23.098;2023-04-27T05:17:21;96952.97;;;9.25;84.87
7614;BME280;3848;42.016;23.098;2023-04-27T05:19:48;96908.34;;;8.99;82.85
7614;BME280;3848;42.016;23.098;2023-04-27T05:22:14;96954.63;;;9.32;82.26
7614;BME280;3848;42.016;23.098;2023-04-27T05:24:45;96906.59;;;9.09;83.79
7614;BME280;3848;42.016;23.098;2023-04-27T05:27:12;96953.75;;;9.36;77.85
7614;BME280;3848;42.016;23.098;2023-04-27T05:29:40;96939.41;;;9.32;78.78
7614;BME280;3848;42.016;23.098;2023-04-27T05:32:14;96952.84;;;9.46;78.73
7614;BME280;3848;42.016;23.098;2023-04-27T05:34:41;96950.22;;;9.55;76.46
7614;BME280;3848;42.016;23.098;2023-04-27T05:37:09;96929.19;;;9.44;75.97
7614;BME280;3848;42.016;23.098;2023-04-27T05:39:36;96956.13;;;9.57;74.85
7614;BME280;3848;42.016;23.098;2023-04-27T05:42:04;96954.38;;;9.68;73.36
7614;BME280;3848;42.016;23.098;2023-04-27T05:44:31;96948.41;;;9.72;72.90
7614;BME280;3848;42.016;23.098;2023-04-27T05:46:58;96958.50;;;9.82;72.60
7614;BME280;3848;42.016;23.098;2023-04-27T05:49:25;96959.34;;;9.84;73.12
7614;BME280;3848;42.016;23.098;2023-04-27T05:51:52;96966.09;;;9.85;71.87
7614;BME280;3848;42.016;23.098;2023-04-27T05:54:19;96970.25;;;9.93;72.07
7614;BME280;3848;42.016;23.098;2023-04-27T05:56:46;96958.34;;;9.98;72.25
7614;BME280;3848;42.016;23.098;2023-04-27T05:59:14;96965.91;;;10.06;72.92
7614;BME280;3848;42.016;23.098;2023-04-27T06:01:41;96969.25;;;10.11;70.52
7614;BME280;3848;42.016;23.098;2023-04-27T06:04:07;96974.31;;;10.11;70.00
7614;BME280;3848;42.016;23.098;2023-04-27T06:06:34;96970.03;;;10.18;70.72
7614;BME280;3848;42.016;23.098;2023-04-27T06:09:01;96984.38;;;10.28;70.44
7614;BME280;3848;42.016;23.098;2023-04-27T06:11:28;96965.78;;;10.18;69.25
7614;BME280;3848;42.016;23.098;2023-04-27T06:13:55;96980.94;;;10.30;67.18
7614;BME280;3848;42.016;23.098;2023-04-27T06:16:23;96976.78;;;10.25;66.20
7614;BME280;3848;42.016;23.098;2023-04-27T06:18:55;96971.69;;;10.20;68.15
7614;BME280;3848;42.016;23.098;2023-04-27T06:21:25;96959.84;;;10.19;67.03
7614;BME280;3848;42.016;23.098;2023-04-27T06:23:52;96975.84;;;10.33;65.67
7614;BME280;3848;42.016;23.098;2023-04-27T06:26:19;96975.91;;;10.27;64.25
7614;BME280;3848;42.016;23.098;2023-04-27T06:29:03;96968.34;;;10.23;64.15
7614;BME280;3848;42.016;23.098;2023-04-27T06:31:33;96983.44;;;10.35;65.23
7614;BME280;3848;42.016;23.098;2023-04-27T06:34:00;96976.63;;;10.42;65.41
7614;BME280;3848;42.016;23.098;2023-04-27T06:36:27;96977.44;;;10.44;65.97
7614;BME280;3848;42.016;23.098;2023-04-27T06:38:54;96979.91;;;10.50;63.83
7614;BME280;3848;42.016;23.098;2023-04-27T06:41:21;96958.75;;;10.51;64.95
7614;BME280;3848;42.016;23.098;2023-04-27T06:43:48;96977.28;;;10.59;64.01
7614;BME280;3848;42.016;23.098;2023-04-27T06:46:15;96960.38;;;10.56;65.73
7614;BME280;3848;42.016;23.098;2023-04-27T06:48:43;96974.50;;;10.79;66.06
7614;BME280;3848;42.016;23.098;2023-04-27T06:51:10;96972.69;;;10.90;64.02
7614;BME280;3848;42.016;23.098;2023-04-27T06:53:37;96973.47;;;10.96;64.44
7614;BME280;3848;42.016;23.098;2023-04-27T06:56:04;96960.75;;;10.96;62.97
7614;BME280;3848;42.016;23.098;2023-04-27T06:58:31;96963.03;;;11.16;63.58
7614;BME280;3848;42.016;23.098;2023-04-27T07:00:58;96968.88;;;11.24;61.96
7614;BME280;3848;42.016;23.098;2023-04-27T07:03:25;96954.41;;;11.28;61.22
7614;BME280;3848;42.016;23.098;2023-04-27T07:05:54;96931.69;;;11.16;61.66
7614;BME280;3848;42.016;23.098;2023-04-27T07:08:21;96952.66;;;11.32;61.81
7614;BME280;3848;42.016;23.098;2023-04-27T07:10:48;96961.88;;;11.39;62.06
7614;BME280;3848;42.016;23.098;2023-04-27T07:13:15;96954.94;;;11.51;61.62
7614;BME280;3848;42.016;23.098;2023-04-27T07:15:42;96960.75;;;11.58;59.05
7614;BME280;3848;42.016;23.098;2023-04-27T07:18:09;96955.53;;;11.66;59.97
7614;BME280;3848;42.016;23.098;2023-04-27T07:20:36;96949.63;;;11.67;61.41
7614;BME280;3848;42.016;23.098;2023-04-27T07:23:04;96934.41;;;11.60;61.08
7614;BME280;3848;42.016;23.098;2023-04-27T07:25:32;96940.81;;;11.89;61.09
7614;BME280;3848;42.016;23.098;2023-04-27T07:27:59;96941.44;;;12.00;59.28
7614;BME280;3848;42.016;23.098;2023-04-27T07:30:26;96942.34;;;11.98;59.69
7614;BME280;3848;42.016;23.098;2023-04-27T07:32:55;96947.34;;;12.04;59.60
7614;BME280;3848;42.016;23.098;2023-04-27T07:35:22;96951.38;;;12.15;58.69
7614;BME280;3848;42.016;23.098;2023-04-27T07:37:48;96957.31;;;12.16;57.94
7614;BME280;3848;42.016;23.098;2023-04-27T07:40:18;96958.09;;;12.19;58.83
7614;BME280;3848;42.016;23.098;2023-04-27T07:42:46;96939.28;;;12.27;59.34
7614;BME280;3848;42.016;23.098;2023-04-27T07:45:13;96950.19;;;12.35;59.34
7614;BME280;3848;42.016;23.098;2023-04-27T07:47:41;96948.31;;;12.44;59.14
7614;BME280;3848;42.016;23.098;2023-04-27T07:50:09;96958.25;;;12.58;58.11
7614;BME280;3848;42.016;23.098;2023-04-27T07:52:37;96947.25;;;12.56;59.33
7614;BME280;3848;42.016;23.098;2023-04-27T07:55:04;96950.25;;;12.76;57.89
7614;BME280;3848;42.016;23.098;2023-04-27T07:57:33;96948.66;;;12.72;57.39
7614;BME280;3848;42.016;23.098;2023-04-27T08:00:00;96965.94;;;13.00;59.35
7614;BME280;3848;42.016;23.098;2023-04-27T08:02:29;96942.72;;;13.13;55.91
7614;BME280;3848;42.016;23.098;2023-04-27T08:04:56;96952.78;;;13.21;56.69
7614;BME280;3848;42.016;23.098;2023-04-27T08:07:23;96945.13;;;13.21;56.02
7614;BME280;3848;42.016;23.098;2023-04-27T08:09:50;96960.75;;;13.45;57.02
7614;BME280;3848;42.016;23.098;2023-04-27T08:12:17;96958.75;;;13.59;56.02
7614;BME280;3848;42.016;23.098;2023-04-27T08:14:46;96931.91;;;13.41;54.35
7614;BME280;3848;42.016;23.098;2023-04-27T08:17:12;96967.28;;;13.58;54.08
7614;BME280;3848;42.016;23.098;2023-04-27T08:19:40;96956.38;;;13.50;55.28
7614;BME280;3848;42.016;23.098;2023-04-27T08:22:06;96965.72;;;13.51;54.04
7614;BME280;3848;42.016;23.098;2023-04-27T08:24:33;96953.66;;;13.59;55.39
7614;BME280;3848;42.016;23.098;2023-04-27T08:27:00;96943.34;;;13.62;55.41
7614;BME280;3848;42.016;23.098;2023-04-27T08:29:28;96954.75;;;13.84;54.43
7614;BME280;3848;42.016;23.098;2023-04-27T08:31:58;96953.59;;;13.97;53.77
7614;BME280;3848;42.016;23.098;2023-04-27T08:34:25;96949.75;;;14.14;53.80
7614;BME280;3848;42.016;23.098;2023-04-27T08:36:52;96956.91;;;14.33;54.44
7614;BME280;3848;42.016;23.098;2023-04-27T08:39:19;96943.22;;;14.36;53.19
7614;BME280;3848;42.016;23.098;2023-04-27T08:41:46;96958.00;;;14.57;53.84
7614;BME280;3848;42.016;23.098;2023-04-27T08:44:13;96918.19;;;14.49;52.06
7614;BME280;3848;42.016;23.098;2023-04-27T08:46:39;96950.41;;;14.87;50.90
7614;BME280;3848;42.016;23.098;2023-04-27T08:49:08;96948.91;;;15.09;52.52
7614;BME280;3848;42.016;23.098;2023-04-27T08:51:35;96952.66;;;15.27;51.39
7614;BME280;3848;42.016;23.098;2023-04-27T08:54:02;96954.38;;;15.27;50.66
7614;BME280;3848;42.016;23.098;2023-04-27T08:56:29;96941.84;;;15.17;51.07
7614;BME280;3848;42.016;23.098;2023-04-27T08:58:57;96945.78;;;15.29;50.88
7614;BME280;3848;42.016;23.098;2023-04-27T09:01:24;96956.63;;;15.37;52.11
7614;BME280;3848;42.016;23.098;2023-04-27T09:03:55;96956.19;;;15.51;51.23
7614;BME280;3848;42.016;23.098;2023-04-27T09:06:29;96955.06;;;15.61;50.53
7614;BME280;3848;42.016;23.098;2023-04-27T09:08:57;96957.56;;;15.64;48.48
7614;BME280;3848;42.016;23.098;2023-04-27T09:11:28;96950.19;;;15.80;48.69
7614;BME280;3848;42.016;23.098;2023-04-27T09:13:57;96948.09;;;15.93;47.79
7614;BME280;3848;42.016;23.098;2023-04-27T09:16:25;96954.41;;;15.82;47.63
7614;BME280;3848;42.016;23.098;2023-04-27T09:18:53;96939.75;;;15.58;47.18
7614;BME280;3848;42.016;23.098;2023-04-27T09:21:21;96957.44;;;15.67;47.44
7614;BME280;3848;42.016;23.098;2023-04-27T09:23:50;96930.25;;;15.63;49.48
7614;BME280;3848;42.016;23.098;2023-04-27T09:26:21;96952.53;;;15.88;48.63
7614;BME280;3848;42.016;23.098;2023-04-27T09:28:49;96945.84;;;15.83;47.87
7614;BME280;3848;42.016;23.098;2023-04-27T09:31:17;96888.63;;;15.55;46.59
7614;BME280;3848;42.016;23.098;2023-04-27T09:33:44;96938.72;;;16.18;48.16
7614;BME280;3848;42.016;23.098;2023-04-27T09:36:12;96939.03;;;16.34;45.58
7614;BME280;3848;42.016;23.098;2023-04-27T09:38:40;96937.41;;;16.31;45.81
7614;BME280;3848;42.016;23.098;2023-04-27T09:41:08;96925.50;;;16.30;47.47
7614;BME280;3848;42.016;23.098;2023-04-27T09:43:36;96934.63;;;16.37;46.87
7614;BME280;3848;42.016;23.098;2023-04-27T09:46:03;96937.63;;;16.50;46.57
7614;BME280;3848;42.016;23.098;2023-04-27T09:48:30;96931.88;;;16.68;45.83
7614;BME280;3848;42.016;23.098;2023-04-27T09:50:57;96928.81;;;17.05;45.25
7614;BME280;3848;42.016;23.098;2023-04-27T09:53:26;96923.88;;;17.66;46.34
7614;BME280;3848;42.016;23.098;2023-04-27T09:56:19;96929.06;;;18.09;44.14
7614;BME280;3848;42.016;23.098;2023-04-27T09:59:10;96917.56;;;18.38;41.59
7614;BME280;3848;42.016;23.098;2023-04-27T10:01:44;96900.97;;;18.45;40.56
7614;BME280;3848;42.016;23.098;2023-04-27T10:04:24;96916.91;;;18.53;40.54
7614;BME280;3848;42.016;23.098;2023-04-27T10:06:59;96908.31;;;18.54;41.66
7614;BME280;3848;42.016;23.098;2023-04-27T10:09:27;96906.50;;;18.56;41.43
7614;BME280;3848;42.016;23.098;2023-04-27T10:11:56;96909.97;;;18.55;42.43
7614;BME280;3848;42.016;23.098;2023-04-27T10:14:47;96913.91;;;18.23;40.24
7614;BME280;3848;42.016;23.098;2023-04-27T10:17:15;96912.81;;;18.08;41.13
7614;BME280;3848;42.016;23.098;2023-04-27T10:19:52;96912.94;;;18.05;41.72
7614;BME280;3848;42.016;23.098;2023-04-27T10:22:20;96905.34;;;18.02;41.79
7614;BME280;3848;42.016;23.098;2023-04-27T10:24:49;96912.84;;;17.86;41.20
7614;BME280;3848;42.016;23.098;2023-04-27T10:27:17;96905.84;;;17.46;41.85
7614;BME280;3848;42.016;23.098;2023-04-27T10:29:49;96897.59;;;17.16;40.97
7614;BME280;3848;42.016;23.098;2023-04-27T10:32:20;96910.44;;;17.16;42.13
7614;BME280;3848;42.016;23.098;2023-04-27T10:34:47;96855.84;;;16.89;41.99
7614;BME280;3848;42.016;23.098;2023-04-27T10:37:16;96900.28;;;17.13;43.32
7614;BME280;3848;42.016;23.098;2023-04-27T10:39:46;96909.28;;;17.01;41.64
7614;BME280;3848;42.016;23.098;2023-04-27T10:42:13;96903.88;;;16.86;42.50
7614;BME280;3848;42.016;23.098;2023-04-27T10:44:40;96905.81;;;16.79;43.11
7614;BME280;3848;42.016;23.098;2023-04-27T10:47:15;96860.88;;;16.69;43.58
7614;BME280;3848;42.016;23.098;2023-04-27T10:49:44;96902.09;;;16.88;42.15
7614;BME280;3848;42.016;23.098;2023-04-27T10:52:11;96907.66;;;16.99;42.04
7614;BME280;3848;42.016;23.098;2023-04-27T10:54:38;96906.00;;;16.98;41.88
7614;BME280;3848;42.016;23.098;2023-04-27T10:57:07;96907.16;;;17.13;41.63
7614;BME280;3848;42.016;23.098;2023-04-27T10:59:47;96909.53;;;17.17;42.67
7614;BME280;3848;42.016;23.098;2023-04-27T11:02:16;96888.16;;;17.17;41.46
7614;BME280;3848;42.016;23.098;2023-04-27T11:04:52;96895.81;;;17.40;40.60
7614;BME280;3848;42.016;23.098;2023-04-27T11:07:23;96897.16;;;17.50;39.17
7614;BME280;3848;42.016;23.098;2023-04-27T11:09:51;96892.34;;;17.41;40.72
7614;BME280;3848;42.016;23.098;2023-04-27T11:12:17;96891.94;;;17.52;42.67
7614;BME280;3848;42.016;23.098;2023-04-27T11:14:44;96890.34;;;17.49;40.09
7614;BME280;3848;42.016;23.098;2023-04-27T11:17:12;96884.00;;;17.36;39.84
7614;BME280;3848;42.016;23.098;2023-04-27T11:19:46;96890.38;;;17.48;41.54
7614;BME280;3848;42.016;23.098;2023-04-27T11:22:14;96861.97;;;17.30;38.92
7614;BME280;3848;42.016;23.098;2023-04-27T11:24:46;96900.63;;;17.49;40.87
7614;BME280;3848;42.016;23.098;2023-04-27T11:27:14;96904.00;;;17.28;40.34
7614;BME280;3848;42.016;23.098;2023-04-27T11:29:41;96891.56;;;17.17;42.20
7614;BME280;3848;42.016;23.098;2023-04-27T11:32:17;96891.16;;;17.28;42.13
7614;BME280;3848;42.016;23.098;2023-04-27T11:34:49;96892.22;;;17.44;43.77
7614;BME280;3848;42.016;23.098;2023-04-27T11:37:20;96895.16;;;17.35;41.91
7614;BME280;3848;42.016;23.098;2023-04-27T11:39:48;96870.78;;;17.01;39.80
7614;BME280;3848;42.016;23.098;2023-04-27T11:42:16;96894.84;;;17.21;41.03
7614;BME280;3848;42.016;23.098;2023-04-27T11:44:55;96897.66;;;17.15;41.25
7614;BME280;3848;42.016;23.098;2023-04-27T11:47:23;96888.53;;;17.29;41.49
7614;BME280;3848;42.016;23.098;2023-04-27T11:49:53;96901.44;;;17.50;41.38
7614;BME280;3848;42.016;23.098;2023-04-27T11:52:20;96832.91;;;17.06;40.55
7614;BME280;3848;42.016;23.098;2023-04-27T11:54:48;96894.47;;;17.53;40.69
7614;BME280;3848;42.016;23.098;2023-04-27T11:57:15;96886.38;;;17.41;39.76
7614;BME280;3848;42.016;23.098;2023-04-27T11:59:42;96868.59;;;17.14;39.78
7614;BME280;3848;42.016;23.098;2023-04-27T12:02:09;96890.44;;;17.24;41.08
7614;BME280;3848;42.016;23.098;2023-04-27T12:04:36;96900.31;;;17.57;42.99
7614;BME280;3848;42.016;23.098;2023-04-27T12:07:04;96883.72;;;17.86;44.75
7614;BME280;3848;42.016;23.098;2023-04-27T12:09:31;96895.69;;;18.07;44.37
7614;BME280;3848;42.016;23.098;2023-04-27T12:11:58;96886.50;;;18.22;39.60
7614;BME280;3848;42.016;23.098;2023-04-27T12:14:32;96899.38;;;18.02;39.51
7614;BME280;3848;42.016;23.098;2023-04-27T12:16:59;96851.75;;;17.73;39.44
7614;BME280;3848;42.016;23.098;2023-04-27T12:19:26;96894.88;;;18.07;40.56
7614;BME280;3848;42.016;23.098;2023-04-27T12:21:54;96887.69;;;18.35;39.15
7614;BME280;3848;42.016;23.098;2023-04-27T12:24:23;96889.22;;;18.39;38.92
7614;BME280;3848;42.016;23.098;2023-04-27T12:26:50;96893.78;;;18.33;38.42
7614;BME280;3848;42.016;23.098;2023-04-27T12:29:17;96880.88;;;18.53;38.50
7614;BME280;3848;42.016;23.098;2023-04-27T12:31:44;96889.84;;;18.65;37.81
7614;BME280;3848;42.016;23.098;2023-04-27T12:34:11;96871.16;;;18.59;38.54
7614;BME280;3848;42.016;23.098;2023-04-27T12:36:38;96887.28;;;18.83;38.78
7614;BME280;3848;42.016;23.098;2023-04-27T12:39:13;96880.69;;;18.97;39.96
7614;BME280;3848;42.016;23.098;2023-04-27T12:41:43;96885.78;;;18.98;37.87
7614;BME280;3848;42.016;23.098;2023-04-27T12:44:10;96877.97;;;18.81;37.67
7614;BME280;3848;42.016;23.098;2023-04-27T12:46:37;96877.81;;;18.65;38.09
7614;BME280;3848;42.016;23.098;2023-04-27T12:49:04;96880.88;;;18.53;38.57
7614;BME280;3848;42.016;23.098;2023-04-27T12:51:31;96890.84;;;18.61;38.91
7614;BME280;3848;42.016;23.098;2023-04-27T12:53:59;96881.84;;;18.50;38.45
7614;BME280;3848;42.016;23.098;2023-04-27T12:56:26;96895.38;;;18.76;38.67
7614;BME280;3848;42.016;23.098;2023-04-27T12:58:54;96882.06;;;18.85;38.59
7614;BME280;3848;42.016;23.098;2023-04-27T13:01:21;96881.09;;;19.06;37.91
7614;BME280;3848;42.016;23.098;2023-04-27T13:03:50;96865.25;;;18.97;38.60
7614;BME280;3848;42.016;23.098;2023-04-27T13:06:18;96873.06;;;19.12;38.64
7614;BME280;3848;42.016;23.098;2023-04-27T13:08:44;96872.38;;;19.28;37.49
7614;BME280;3848;42.016;23.098;2023-04-27T13:11:16;96875.75;;;19.66;37.96
7614;BME280;3848;42.016;23.098;2023-04-27T13:13:44;96867.63;;;20.08;36.46
7614;BME280;3848;42.016;23.098;2023-04-27T13:16:13;96869.97;;;20.13;36.19
7614;BME280;3848;42.016;23.098;2023-04-27T13:18:41;96862.31;;;20.11;35.37